»·PEaware :: N5MW KHND-KPSP

N5MW :: KHND-KPSP

FLIGHT INFORMATION

Flight Status: Arrived
Operator: Privately registered:
United States
More flights under this callsign
Pilot: Max W. (2591)
Aircraft: SOCATA TBM-900
(TBM9)
More flights by this aircraft type
Origin: KHND Henderson
United States
Destination: KPSP Palm Springs Intl
United States
More flights between these airports :: More routes between these airports
Route: +PALLY3 TNP PSP
File this flight plan on PilotEdge
Remarks:
Altitude:
(Current/Filed)
20,000ft
Speed:
(Current/Filed)
450kts
Departed: 08-Sep-18 10:41 AM
Arrived: 08-Sep-18 11:24 AM
Distance/Time
Traveled:
146nm/0:43
Distance/Time
To Go:
Arrived

Flight Plot

Page will automatically refresh every two minutes.

Flight plan parsing failed; only flown route is shown


Map Options




Map Legend


Flown Route
Filed Route
Departure Airport
Arrival Airport
Navaid (VOR, NDB)
Fix

Horizontal Profiles

Position Reports

Time Latitude Longitude Heading Altitude Ground
Speed
08-Sep-18 10:04 35.973100 -115.137679 360 2447ft 0kts
08-Sep-18 10:05 35.973100 -115.137679 360 2447ft 0kts
08-Sep-18 10:06 35.973100 -115.137679 360 2447ft 0kts
08-Sep-18 10:07 35.973100 -115.137679 360 2447ft 0kts
08-Sep-18 10:08 35.973100 -115.137679 360 2447ft 0kts
08-Sep-18 10:09 35.973100 -115.137679 360 2447ft 0kts
08-Sep-18 10:10 35.973100 -115.137679 360 2447ft 0kts
08-Sep-18 10:11 35.973100 -115.137679 360 2447ft 0kts
08-Sep-18 10:12 35.973100 -115.137679 360 2447ft 0kts
08-Sep-18 10:13 35.973100 -115.137679 360 2447ft 0kts
08-Sep-18 10:14 35.973100 -115.137679 360 2447ft 0kts
08-Sep-18 10:15 35.973100 -115.137679 359 2447ft 0kts
08-Sep-18 10:16 35.973100 -115.137679 359 2447ft 0kts
08-Sep-18 10:17 35.973100 -115.137679 360 2447ft 0kts
08-Sep-18 10:18 35.973100 -115.137679 359 2447ft 0kts
08-Sep-18 10:19 35.973100 -115.137679 359 2447ft 0kts
08-Sep-18 10:20 35.973100 -115.137679 359 2447ft 0kts
08-Sep-18 10:21 35.973100 -115.137679 359 2447ft 0kts
08-Sep-18 10:22 35.973100 -115.137679 359 2447ft 0kts
08-Sep-18 10:23 35.973100 -115.137679 359 2447ft 0kts
08-Sep-18 10:24 35.973100 -115.137679 359 2447ft 0kts
08-Sep-18 10:25 35.973100 -115.137679 359 2447ft 0kts
08-Sep-18 10:26 35.973100 -115.137679 359 2447ft 0kts
08-Sep-18 10:27 35.973100 -115.137679 359 2447ft 0kts
08-Sep-18 10:28 35.973143 -115.137659 32 2447ft 2kts
08-Sep-18 10:29 35.973236 -115.137118 90 2446ft 0kts
08-Sep-18 10:30 35.975692 -115.136902 357 2446ft 13kts
08-Sep-18 10:31 35.980213 -115.136812 6 2447ft 16kts
08-Sep-18 10:32 35.980798 -115.136286 98 2447ft 0kts
08-Sep-18 10:33 35.980798 -115.136286 98 2447ft 0kts
08-Sep-18 10:34 35.980659 -115.135320 178 2447ft 0kts
08-Sep-18 10:35 35.977413 -115.136015 275 2447ft 14kts
08-Sep-18 10:36 35.979043 -115.137376 99 2446ft 0kts
08-Sep-18 10:37 35.979043 -115.137376 99 2446ft 0kts
08-Sep-18 10:38 35.979043 -115.137376 99 2446ft 0kts
08-Sep-18 10:39 35.979043 -115.137376 99 2446ft 0kts
08-Sep-18 10:40 35.979043 -115.137376 99 2446ft 0kts
08-Sep-18 10:41 35.979040 -115.137351 98 2447ft 0kts
08-Sep-18 10:42 35.980764 -115.136489 59 2447ft 11kts
08-Sep-18 10:43 35.972162 -115.135438 168 2447ft 107kts
08-Sep-18 10:44 35.939292 -115.139960 227 3813ft 144kts
08-Sep-18 10:45 35.902426 -115.162919 180 5769ft 160kts
08-Sep-18 10:46 35.854876 -115.157205 175 7044ft 210kts
08-Sep-18 10:47 35.790401 -115.162773 188 7012ft 248kts
08-Sep-18 10:48 35.744747 -115.203166 226 9736ft 156kts
08-Sep-18 10:49 35.715117 -115.241297 226 11742ft 158kts
08-Sep-18 10:50 35.683529 -115.279298 199 13546ft 163kts
08-Sep-18 10:51 35.637440 -115.284459 186 15186ft 170kts
08-Sep-18 10:52 35.589775 -115.287069 186 16638ft 174kts
08-Sep-18 10:53 35.540476 -115.289706 187 18390ft 181kts
08-Sep-18 10:54 35.484645 -115.292755 186 19091ft 238kts
08-Sep-18 10:55 35.412596 -115.296569 185 19062ft 273kts
08-Sep-18 10:56 35.335411 -115.300668 185 19049ft 282kts
08-Sep-18 10:57 35.256596 -115.304858 185 19012ft 285kts
08-Sep-18 10:58 35.177229 -115.309072 185 18980ft 286kts
08-Sep-18 10:59 35.097866 -115.313277 185 18961ft 286kts
08-Sep-18 11:00 35.018360 -115.317488 185 18959ft 285kts
08-Sep-18 11:01 34.944041 -115.321411 185 19919ft 264kts
08-Sep-18 11:02 34.871319 -115.325256 184 19949ft 276kts
08-Sep-18 11:03 34.795152 -115.329244 184 19946ft 280kts
08-Sep-18 11:04 34.722035 -115.356775 201 19945ft 278kts
08-Sep-18 11:05 34.649333 -115.388589 201 19986ft 277kts
08-Sep-18 11:06 34.577051 -115.420182 201 20053ft 276kts
08-Sep-18 11:07 34.504993 -115.451622 201 20090ft 277kts
08-Sep-18 11:08 34.432495 -115.483194 201 20090ft 278kts
08-Sep-18 11:09 34.359880 -115.514760 201 20089ft 278kts
08-Sep-18 11:10 34.295885 -115.563429 223 20090ft 276kts
08-Sep-18 11:11 34.240159 -115.626176 223 20089ft 276kts
08-Sep-18 11:12 34.185382 -115.687794 222 20091ft 277kts
08-Sep-18 11:13 34.127988 -115.752259 222 19117ft 300kts
08-Sep-18 11:14 34.059091 -115.813024 213 17027ft 317kts
08-Sep-18 11:15 33.986890 -115.871507 212 14580ft 310kts
08-Sep-18 11:16 33.917022 -115.928432 217 11710ft 302kts
08-Sep-18 11:17 33.898049 -116.012350 263 9823ft 256kts
08-Sep-18 11:18 33.883351 -116.086719 221 9615ft 241kts
08-Sep-18 11:19 33.830687 -116.141868 221 8389ft 263kts
08-Sep-18 11:20 33.777274 -116.202787 252 6907ft 258kts
08-Sep-18 11:21 33.789864 -116.286561 282 5331ft 246kts
08-Sep-18 11:21 33.797034 -116.349866 268 3778ft 221kts
08-Sep-18 11:23 33.782554 -116.426483 259 2206ft 203kts
08-Sep-18 11:24 33.798869 -116.480781 327 1441ft 151kts
08-Sep-18 11:25 33.823295 -116.501939 324 480ft 74kts
08-Sep-18 11:25 33.830520 -116.507199 2 480ft 25kts
08-Sep-18 11:26 33.829324 -116.503459 141 480ft 31kts
08-Sep-18 11:28 33.824393 -116.498410 74 480ft 0kts

Navigation Log

Ident Type
Flight plan parsing failed, navigation log unavailable